Time;durP1;ratioP1;P1;durP2;ratioP2;P2;SDS_P1;SDS_P2;PMS_P1;PMS_P2;Temp;Humidity;BMP_temperature;BMP_pressure;BME280_temperature;BME280_humidity;BME280_pressure;Samples;Min_cycle;Max_cycle;Signal;HPM_P1;HPM_P2
2022/03/08 00:02:05;;;;;;;7.90;3.50;;;;;;;;;;5040361;28;20043;-50
2022/03/08 00:04:31;;;;;;;7.05;4.03;;;;;;;;;;5046589;28;20040;-52
2022/03/08 00:06:57;;;;;;;8.48;3.90;;;;;;;;;;5040963;28;20056;-54
2022/03/08 00:09:23;;;;;;;6.97;3.28;;;;;;;;;;5042141;28;20036;-54
2022/03/08 00:11:49;;;;;;;6.35;3.33;;;;;;;;;;5038221;28;20469;-54
2022/03/08 00:14:15;;;;;;;6.95;3.25;;;;;;;;;;5045516;28;20036;-54
2022/03/08 00:16:41;;;;;;;5.72;3.25;;;;;;;;;;5041053;28;20111;-53
2022/03/08 00:19:07;;;;;;;6.55;3.65;;;;;;;;;;5054869;28;20454;-55
2022/03/08 00:21:34;;;;;;;5.63;3.13;;;;;;;;;;5045126;28;20039;-50
2022/03/08 00:24:00;;;;;;;6.55;3.22;;;;;;;;;;5053008;28;20128;-54
2022/03/08 00:26:26;;;;;;;6.55;3.20;;;;;;;;;;5053609;28;20119;-50
2022/03/08 00:28:52;;;;;;;5.63;2.92;;;;;;;;;;5054081;28;20194;-54
2022/03/08 00:31:18;;;;;;;6.55;3.38;;;;;;;;;;5053091;28;20102;-52
2022/03/08 00:33:44;;;;;;;6.47;3.30;;;;;;;;;;5053520;28;20025;-52
2022/03/08 00:36:10;;;;;;;7.72;3.75;;;;;;;;;;5036741;28;20116;-49
2022/03/08 00:38:36;;;;;;;7.95;3.38;;;;;;;;;;5052559;28;20025;-51
2022/03/08 00:41:03;;;;;;;8.35;3.20;;;;;;;;;;5053694;28;20036;-54
2022/03/08 00:43:29;;;;;;;5.25;3.17;;;;;;;;;;5054090;28;20402;-54
2022/03/08 00:45:55;;;;;;;5.82;2.88;;;;;;;;;;5048912;28;20122;-50
2022/03/08 00:48:21;;;;;;;5.95;2.95;;;;;;;;;;5053947;28;20467;-51
2022/03/08 00:50:47;;;;;;;5.68;2.88;;;;;;;;;;5053830;28;20021;-55
2022/03/08 00:53:13;;;;;;;6.30;3.13;;;;;;;;;;5053777;28;20467;-53
2022/03/08 00:55:39;;;;;;;6.45;2.80;;;;;;;;;;5049258;28;20052;-52
2022/03/08 00:58:06;;;;;;;6.30;3.17;;;;;;;;;;5041657;28;20068;-52
2022/03/08 01:00:34;;;;;;;6.13;3.03;;;;;;;;;;5053012;28;20502;-52
2022/03/08 01:03:00;;;;;;;7.93;3.25;;;;;;;;;;5054252;28;20028;-52
2022/03/08 01:05:26;;;;;;;5.65;3.00;;;;;;;;;;5052757;28;20469;-49
2022/03/08 01:07:53;;;;;;;5.38;3.10;;;;;;;;;;5042677;28;20025;-53
2022/03/08 01:10:21;;;;;;;5.70;2.85;;;;;;;;;;5051226;28;20624;-50
2022/03/08 01:12:48;;;;;;;5.15;2.83;;;;;;;;;;5045570;28;20053;-52
2022/03/08 01:15:15;;;;;;;5.43;2.78;;;;;;;;;;5053847;28;20136;-53
2022/03/08 01:17:41;;;;;;;7.40;3.47;;;;;;;;;;5034650;28;20110;-52
2022/03/08 01:20:08;;;;;;;4.88;2.78;;;;;;;;;;5052319;28;20033;-49
2022/03/08 01:22:34;;;;;;;6.07;2.85;;;;;;;;;;5038774;28;20407;-52
2022/03/08 01:25:00;;;;;;;5.68;2.75;;;;;;;;;;5045683;28;20040;-51
2022/03/08 01:27:26;;;;;;;5.15;3.00;;;;;;;;;;5047359;28;20480;-52
2022/03/08 01:29:52;;;;;;;3.92;2.60;;;;;;;;;;5043702;28;20061;-50
2022/03/08 01:32:19;;;;;;;5.53;3.30;;;;;;;;;;5050365;28;20036;-53
2022/03/08 01:34:45;;;;;;;5.50;3.10;;;;;;;;;;5050140;28;20150;-55
2022/03/08 01:37:11;;;;;;;7.97;3.33;;;;;;;;;;5050821;28;20052;-53
2022/03/08 01:39:37;;;;;;;5.57;3.38;;;;;;;;;;5050076;28;20502;-52
2022/03/08 01:42:09;;;;;;;6.72;2.88;;;;;;;;;;5049852;28;20031;-53
2022/03/08 01:44:36;;;;;;;6.60;3.20;;;;;;;;;;5047454;28;20625;-51
2022/03/08 01:47:02;;;;;;;4.53;2.70;;;;;;;;;;5047422;28;20036;-50
2022/03/08 01:49:28;;;;;;;5.55;2.90;;;;;;;;;;5046161;28;20029;-53
2022/03/08 01:51:54;;;;;;;5.05;2.70;;;;;;;;;;5048510;28;20048;-52
2022/03/08 01:54:20;;;;;;;5.03;3.13;;;;;;;;;;5048456;28;20121;-48
2022/03/08 01:56:46;;;;;;;4.95;2.80;;;;;;;;;;5049237;28;20098;-48
2022/03/08 01:59:13;;;;;;;5.25;2.65;;;;;;;;;;5033947;28;20398;-53
2022/03/08 02:01:39;;;;;;;6.03;2.90;;;;;;;;;;5048840;28;20099;-54
2022/03/08 02:04:06;;;;;;;5.38;2.65;;;;;;;;;;5050304;28;20100;-50
2022/03/08 02:06:32;;;;;;;4.47;2.67;;;;;;;;;;5039440;28;20559;-53
2022/03/08 02:08:58;;;;;;;3.92;2.38;;;;;;;;;;5050055;28;20041;-52
2022/03/08 02:11:26;;;;;;;4.55;2.72;;;;;;;;;;5047686;28;20025;-54
2022/03/08 02:13:52;;;;;;;5.47;2.60;;;;;;;;;;5050248;28;20033;-53
2022/03/08 02:16:18;;;;;;;5.30;2.63;;;;;;;;;;5049131;28;20037;-53
2022/03/08 02:18:45;;;;;;;5.35;2.70;;;;;;;;;;5049485;28;20040;-54
2022/03/08 02:21:11;;;;;;;5.05;2.53;;;;;;;;;;5048273;28;20032;-51
2022/03/08 02:23:37;;;;;;;4.35;2.38;;;;;;;;;;5049619;28;20053;-54
2022/03/08 02:26:03;;;;;;;4.97;2.28;;;;;;;;;;5042715;28;20872;-49
2022/03/08 02:28:30;;;;;;;5.43;2.60;;;;;;;;;;5047698;28;20093;-47
2022/03/08 02:30:56;;;;;;;4.75;2.75;;;;;;;;;;5047555;28;20065;-49
2022/03/08 02:33:22;;;;;;;5.50;2.30;;;;;;;;;;5049404;28;20059;-50
2022/03/08 02:35:48;;;;;;;4.38;2.45;;;;;;;;;;5046942;28;20057;-49
2022/03/08 02:38:14;;;;;;;6.15;2.95;;;;;;;;;;5049424;28;20439;-52
2022/03/08 02:40:43;;;;;;;4.53;2.40;;;;;;;;;;5047556;28;20028;-52
2022/03/08 02:43:12;;;;;;;3.88;2.20;;;;;;;;;;5048997;28;20049;-51
2022/03/08 02:45:38;;;;;;;4.65;2.20;;;;;;;;;;5048898;28;20040;-52
2022/03/08 02:48:05;;;;;;;4.72;2.10;;;;;;;;;;5048570;28;20581;-50
2022/03/08 02:50:31;;;;;;;3.97;2.00;;;;;;;;;;5046149;28;20088;-52
2022/03/08 02:52:57;;;;;;;4.05;2.03;;;;;;;;;;5044848;28;20044;-54
2022/03/08 02:55:25;;;;;;;3.63;2.22;;;;;;;;;;5037899;28;20032;-48
2022/03/08 02:57:52;;;;;;;4.55;2.45;;;;;;;;;;5038626;28;20117;-53
2022/03/08 03:00:19;;;;;;;4.90;2.42;;;;;;;;;;5033422;28;20061;-55
2022/03/08 03:02:45;;;;;;;4.90;2.63;;;;;;;;;;5047101;28;20051;-54
2022/03/08 03:05:12;;;;;;;5.20;2.63;;;;;;;;;;5045017;28;20123;-53
2022/03/08 03:07:38;;;;;;;4.18;2.42;;;;;;;;;;5038073;28;20064;-53
2022/03/08 03:10:05;;;;;;;4.15;2.15;;;;;;;;;;5048042;28;20025;-53
2022/03/08 03:12:31;;;;;;;4.72;1.88;;;;;;;;;;5037326;28;20071;-54
2022/03/08 03:14:58;;;;;;;4.10;2.33;;;;;;;;;;5049297;28;20087;-53
2022/03/08 03:17:24;;;;;;;3.97;2.22;;;;;;;;;;5047760;28;20104;-51
2022/03/08 03:19:50;;;;;;;3.72;2.13;;;;;;;;;;5048290;28;20491;-55
2022/03/08 03:22:16;;;;;;;4.10;2.00;;;;;;;;;;5039662;28;20034;-53
2022/03/08 03:24:42;;;;;;;4.95;2.20;;;;;;;;;;5047177;28;20539;-52
2022/03/08 03:27:08;;;;;;;3.92;2.35;;;;;;;;;;5040055;28;20116;-49
2022/03/08 03:29:34;;;;;;;4.70;2.33;;;;;;;;;;5046956;28;20029;-52
2022/03/08 03:32:00;;;;;;;3.55;2.10;;;;;;;;;;5033607;28;20116;-51
2022/03/08 03:34:26;;;;;;;4.20;2.13;;;;;;;;;;5045015;28;20037;-53
2022/03/08 03:36:52;;;;;;;4.72;2.25;;;;;;;;;;5032666;28;20037;-52
2022/03/08 03:39:19;;;;;;;4.53;2.00;;;;;;;;;;5043274;28;20411;-55
2022/03/08 03:41:44;;;;;;;4.35;2.03;;;;;;;;;;5034282;28;20029;-49
2022/03/08 03:44:11;;;;;;;4.30;1.98;;;;;;;;;;5044424;28;20108;-53
2022/03/08 03:46:37;;;;;;;3.67;2.10;;;;;;;;;;5046173;28;20035;-52
2022/03/08 03:49:03;;;;;;;4.05;2.17;;;;;;;;;;5046529;28;20613;-54
2022/03/08 03:51:29;;;;;;;3.58;1.88;;;;;;;;;;5036770;28;20120;-52
2022/03/08 03:53:55;;;;;;;4.65;2.00;;;;;;;;;;5035100;28;20028;-50
2022/03/08 03:56:21;;;;;;;5.10;2.20;;;;;;;;;;5047589;28;20166;-51
2022/03/08 03:58:48;;;;;;;3.38;1.63;;;;;;;;;;5047214;28;20098;-54
2022/03/08 04:01:15;;;;;;;2.90;1.60;;;;;;;;;;5040427;28;20095;-55
2022/03/08 04:03:41;;;;;;;3.30;1.90;;;;;;;;;;5029753;28;20037;-52
2022/03/08 04:06:07;;;;;;;3.85;1.83;;;;;;;;;;5043878;28;20124;-48
2022/03/08 04:08:33;;;;;;;3.92;2.10;;;;;;;;;;5047902;28;20033;-53
2022/03/08 04:11:00;;;;;;;5.38;1.90;;;;;;;;;;5045797;28;20029;-53
2022/03/08 04:13:27;;;;;;;5.55;2.40;;;;;;;;;;5047854;28;20096;-52
2022/03/08 04:15:53;;;;;;;3.42;1.60;;;;;;;;;;5041826;28;20039;-52
2022/03/08 04:18:19;;;;;;;3.80;1.65;;;;;;;;;;5047836;28;20025;-51
2022/03/08 04:20:45;;;;;;;5.28;2.03;;;;;;;;;;5046972;28;20029;-51
2022/03/08 04:23:12;;;;;;;3.58;1.98;;;;;;;;;;5046351;28;20025;-52
2022/03/08 04:25:38;;;;;;;6.93;1.90;;;;;;;;;;5035677;28;20045;-51
2022/03/08 04:28:05;;;;;;;3.20;1.70;;;;;;;;;;5047968;28;20028;-52
2022/03/08 04:30:31;;;;;;;5.70;2.33;;;;;;;;;;5045964;28;20024;-53
2022/03/08 04:32:57;;;;;;;5.00;1.90;;;;;;;;;;5042954;28;20041;-54
2022/03/08 04:35:24;;;;;;;3.20;1.65;;;;;;;;;;5045156;28;20109;-54
2022/03/08 04:37:51;;;;;;;5.63;2.03;;;;;;;;;;5038815;28;20580;-57
2022/03/08 04:40:18;;;;;;;3.05;1.55;;;;;;;;;;5035622;28;20025;-54
2022/03/08 04:42:44;;;;;;;4.80;2.00;;;;;;;;;;5036424;28;20028;-54
2022/03/08 04:45:11;;;;;;;4.82;1.92;;;;;;;;;;5045678;28;20031;-55
2022/03/08 04:47:38;;;;;;;6.47;2.17;;;;;;;;;;5047054;28;20032;-52
2022/03/08 04:50:04;;;;;;;5.28;1.70;;;;;;;;;;5033973;28;20510;-54
2022/03/08 04:52:30;;;;;;;5.78;2.05;;;;;;;;;;5043787;28;20487;-55
2022/03/08 04:54:56;;;;;;;8.10;2.30;;;;;;;;;;5040897;28;20091;-55
2022/03/08 04:57:23;;;;;;;8.13;2.35;;;;;;;;;;5046327;28;20457;-54
2022/03/08 04:59:49;;;;;;;5.70;2.35;;;;;;;;;;5049818;28;20116;-52
2022/03/08 05:02:15;;;;;;;9.45;2.60;;;;;;;;;;5050048;28;20120;-52
2022/03/08 05:04:41;;;;;;;6.82;2.00;;;;;;;;;;5050579;28;20040;-56
2022/03/08 05:07:07;;;;;;;8.45;2.35;;;;;;;;;;5047561;28;20032;-53
2022/03/08 05:09:33;;;;;;;7.50;2.63;;;;;;;;;;5051000;28;20032;-50
2022/03/08 05:11:59;;;;;;;7.60;2.30;;;;;;;;;;5048834;28;20029;-56
2022/03/08 05:14:25;;;;;;;7.30;4.55;;;;;;;;;;5050264;28;20479;-51
2022/03/08 05:16:52;;;;;;;11.30;4.93;;;;;;;;;;5049972;28;20538;-55
2022/03/08 05:19:18;;;;;;;9.85;5.95;;;;;;;;;;5050692;28;20033;-55
2022/03/08 05:21:44;;;;;;;10.65;5.25;;;;;;;;;;5049339;28;20029;-50
2022/03/08 05:24:10;;;;;;;13.07;5.47;;;;;;;;;;5050791;28;20364;-56
2022/03/08 05:26:40;;;;;;;7.88;5.20;;;;;;;;;;5042359;28;20051;-56
2022/03/08 05:29:07;;;;;;;7.78;5.75;;;;;;;;;;5050625;28;20021;-51
2022/03/08 05:31:33;;;;;;;8.93;6.00;;;;;;;;;;5039504;28;20194;-51
2022/03/08 05:33:59;;;;;;;13.48;6.45;;;;;;;;;;5036405;28;20027;-50
2022/03/08 05:36:25;;;;;;;7.35;4.97;;;;;;;;;;5030442;28;20053;-52
2022/03/08 05:38:51;;;;;;;8.10;4.45;;;;;;;;;;5050009;28;20150;-55
2022/03/08 05:41:17;;;;;;;7.95;4.82;;;;;;;;;;5049819;28;20041;-55
2022/03/08 05:43:44;;;;;;;9.85;4.63;;;;;;;;;;5037672;28;20032;-52
2022/03/08 05:46:10;;;;;;;26.98;4.72;;;;;;;;;;5048967;28;20032;-55
2022/03/08 05:48:36;;;;;;;11.88;4.30;;;;;;;;;;5048056;28;20017;-51
2022/03/08 05:51:02;;;;;;;14.10;3.95;;;;;;;;;;5049579;28;20049;-50
2022/03/08 05:53:28;;;;;;;15.25;4.10;;;;;;;;;;5049653;28;20040;-49
2022/03/08 05:55:55;;;;;;;8.38;3.33;;;;;;;;;;5049579;28;20083;-50
2022/03/08 05:58:21;;;;;;;7.45;3.60;;;;;;;;;;5050190;28;20098;-47
2022/03/08 06:00:47;;;;;;;9.75;3.72;;;;;;;;;;5047847;28;20028;-52
2022/03/08 06:03:13;;;;;;;9.55;3.42;;;;;;;;;;5047188;28;20686;-52
2022/03/08 06:05:39;;;;;;;6.25;3.42;;;;;;;;;;5038586;28;20128;-52
2022/03/08 06:08:05;;;;;;;10.35;3.75;;;;;;;;;;5049650;28;20457;-51
2022/03/08 06:10:34;;;;;;;12.70;3.45;;;;;;;;;;5047490;28;20033;-54
2022/03/08 06:13:01;;;;;;;14.77;3.45;;;;;;;;;;5048264;28;20037;-52
2022/03/08 06:15:27;;;;;;;9.13;2.83;;;;;;;;;;5048709;28;20021;-53
2022/03/08 06:17:53;;;;;;;12.30;2.50;;;;;;;;;;5049959;28;20124;-52
2022/03/08 06:20:19;;;;;;;9.50;2.67;;;;;;;;;;5049019;28;20034;-47
2022/03/08 06:22:45;;;;;;;17.00;4.45;;;;;;;;;;5049433;28;20091;-50
2022/03/08 06:25:11;;;;;;;12.73;3.17;;;;;;;;;;5048340;28;20104;-50
2022/03/08 06:27:37;;;;;;;7.97;3.08;;;;;;;;;;5049249;28;20194;-52
2022/03/08 06:30:04;;;;;;;13.98;2.90;;;;;;;;;;5047778;28;20064;-50
2022/03/08 06:32:30;;;;;;;13.80;3.15;;;;;;;;;;5048235;28;20167;-53
2022/03/08 06:34:56;;;;;;;11.52;2.83;;;;;;;;;;5049254;28;20036;-52
2022/03/08 06:37:22;;;;;;;9.77;2.47;;;;;;;;;;5046486;28;20055;-53
2022/03/08 06:39:49;;;;;;;8.15;2.38;;;;;;;;;;5040077;28;20487;-49
2022/03/08 06:42:15;;;;;;;8.05;2.30;;;;;;;;;;5044867;28;20120;-53
2022/03/08 06:44:41;;;;;;;9.70;2.40;;;;;;;;;;5048868;28;20112;-52
2022/03/08 06:47:08;;;;;;;7.10;2.67;;;;;;;;;;5042122;28;20048;-49
2022/03/08 06:49:35;;;;;;;11.02;3.33;;;;;;;;;;5048933;28;20083;-52
2022/03/08 06:52:01;;;;;;;6.97;2.85;;;;;;;;;;5048522;28;20060;-49
2022/03/08 06:54:27;;;;;;;7.07;2.25;;;;;;;;;;5048549;28;20040;-50
2022/03/08 06:56:53;;;;;;;9.35;2.20;;;;;;;;;;5046789;28;20075;-51
2022/03/08 06:59:19;;;;;;;5.47;2.47;;;;;;;;;;5048894;28;20494;-52
2022/03/08 07:01:45;;;;;;;11.10;2.60;;;;;;;;;;5037580;28;20035;-53
2022/03/08 07:04:11;;;;;;;4.97;2.00;;;;;;;;;;5047613;28;20112;-53
2022/03/08 07:06:37;;;;;;;8.00;2.15;;;;;;;;;;5036410;28;20173;-52
2022/03/08 07:09:03;;;;;;;9.13;2.40;;;;;;;;;;5035433;28;20034;-52
2022/03/08 07:11:31;;;;;;;7.90;2.28;;;;;;;;;;5041670;28;20522;-52
2022/03/08 07:13:57;;;;;;;7.53;2.55;;;;;;;;;;5047720;28;20491;-54
2022/03/08 07:16:23;;;;;;;5.93;2.17;;;;;;;;;;5044060;28;20028;-52
2022/03/08 07:18:49;;;;;;;7.57;1.90;;;;;;;;;;5047881;28;20040;-49
2022/03/08 07:21:16;;;;;;;8.30;2.35;;;;;;;;;;5045069;28;20132;-51
2022/03/08 07:23:42;;;;;;;5.28;1.75;;;;;;;;;;5031850;28;20091;-48
2022/03/08 07:26:09;;;;;;;6.85;1.95;;;;;;;;;;5035115;28;20557;-51
2022/03/08 07:28:35;;;;;;;8.18;2.15;;;;;;;;;;5047683;28;20095;-49
2022/03/08 07:31:01;;;;;;;8.50;2.00;;;;;;;;;;5041802;28;20116;-53
2022/03/08 07:33:28;;;;;;;5.03;2.00;;;;;;;;;;5044933;28;20040;-52
2022/03/08 07:35:54;;;;;;;9.60;2.50;;;;;;;;;;5040765;28;20471;-50
2022/03/08 07:38:20;;;;;;;8.15;2.28;;;;;;;;;;5038069;28;20112;-53
2022/03/08 07:40:46;;;;;;;4.22;1.80;;;;;;;;;;5034901;28;20040;-51
2022/03/08 07:43:12;;;;;;;8.43;2.15;;;;;;;;;;5042630;28;20100;-48
2022/03/08 07:45:38;;;;;;;6.32;2.17;;;;;;;;;;5035188;28;20108;-48
2022/03/08 07:48:05;;;;;;;7.05;2.28;;;;;;;;;;5041008;28;20029;-60
2022/03/08 07:50:32;;;;;;;4.75;1.85;;;;;;;;;;5027190;28;20034;-57
2022/03/08 07:53:01;;;;;;;6.43;2.28;;;;;;;;;;5037438;28;20526;-56
2022/03/08 07:55:29;;;;;;;6.05;2.20;;;;;;;;;;5031645;28;20167;-56
2022/03/08 07:57:59;;;;;;;5.78;2.58;;;;;;;;;;5037901;28;20033;-53
2022/03/08 08:00:25;;;;;;;;;;;;;;;;;;5039806;28;20049;-48
2022/03/08 08:02:51;;;;;;;12.32;2.55;;;;;;;;;;5046423;28;19947;-52
2022/03/08 08:05:18;;;;;;;10.75;2.20;;;;;;;;;;5038077;28;20136;-54
2022/03/08 08:07:44;;;;;;;8.68;2.33;;;;;;;;;;5040415;28;20073;-52
2022/03/08 08:10:10;;;;;;;10.55;2.60;;;;;;;;;;5035090;28;20033;-53
2022/03/08 08:12:36;;;;;;;6.63;2.10;;;;;;;;;;5033744;28;20049;-49
2022/03/08 08:15:03;;;;;;;5.75;2.08;;;;;;;;;;5049323;28;20029;-56
2022/03/08 08:17:30;;;;;;;8.48;2.35;;;;;;;;;;5047403;28;20159;-53
2022/03/08 08:19:56;;;;;;;4.25;2.08;;;;;;;;;;5041104;28;20043;-56
2022/03/08 08:22:23;;;;;;;9.07;2.13;;;;;;;;;;5036121;28;20118;-55
2022/03/08 08:24:49;;;;;;;6.82;2.08;;;;;;;;;;5037587;28;20542;-56
2022/03/08 08:27:15;;;;;;;9.15;2.42;;;;;;;;;;5035467;28;20924;-57
2022/03/08 08:29:41;;;;;;;9.13;2.03;;;;;;;;;;5045907;28;20111;-55
2022/03/08 08:32:07;;;;;;;7.47;2.45;;;;;;;;;;5045793;28;20056;-55
2022/03/08 08:34:33;;;;;;;12.90;3.67;;;;;;;;;;5049956;28;20025;-56
2022/03/08 08:36:59;;;;;;;9.85;2.53;;;;;;;;;;5030873;28;20781;-54
2022/03/08 08:39:25;;;;;;;9.98;2.25;;;;;;;;;;5046140;28;20108;-55
2022/03/08 08:41:51;;;;;;;11.23;3.30;;;;;;;;;;5051122;28;20122;-54
2022/03/08 08:44:19;;;;;;;5.97;2.97;;;;;;;;;;5050752;28;20115;-55
2022/03/08 08:46:45;;;;;;;11.13;2.80;;;;;;;;;;5042763;28;20029;-54
2022/03/08 08:49:11;;;;;;;8.88;2.75;;;;;;;;;;5050773;28;20024;-57
2022/03/08 08:51:38;;;;;;;8.10;2.55;;;;;;;;;;5050020;28;20053;-54
2022/03/08 08:54:04;;;;;;;16.02;3.00;;;;;;;;;;5050947;28;20036;-55
2022/03/08 08:56:50;;;;;;;11.63;2.80;;;;;;;;;;5051582;28;20029;-56
2022/03/08 08:59:29;;;;;;;30.88;3.45;;;;;;;;;;5050843;28;20040;-57
2022/03/08 09:03:06;;;;;;;;;;;;;;;;;;;;;
2022/03/08 09:05:03;;;;;;;11.02;2.40;;;;;;;;;;5041251;28;20091;-57
2022/03/08 09:07:29;;;;;;;6.25;2.35;;;;;;;;;;5050402;28;20025;-58
2022/03/08 09:09:55;;;;;;;8.95;2.22;;;;;;;;;;5049785;28;20071;-57
2022/03/08 09:12:21;;;;;;;11.38;4.15;;;;;;;;;;5050566;28;20124;-57
2022/03/08 09:14:47;;;;;;;32.15;16.13;;;;;;;;;;5055710;28;20148;-56
2022/03/08 09:17:13;;;;;;;26.98;15.88;;;;;;;;;;5051635;28;20544;-56
2022/03/08 09:19:39;;;;;;;31.75;19.63;;;;;;;;;;5050315;28;20162;-56
2022/03/08 09:22:05;;;;;;;30.70;17.00;;;;;;;;;;5058228;28;20446;-56
2022/03/08 09:24:35;;;;;;;26.95;14.98;;;;;;;;;;5060748;28;20029;-57
2022/03/08 09:27:01;;;;;;;24.00;15.65;;;;;;;;;;5059103;28;20061;-57
2022/03/08 09:29:27;;;;;;;28.55;21.67;;;;;;;;;;5066629;28;20037;-54
2022/03/08 09:31:53;;;;;;;29.02;19.63;;;;;;;;;;5042308;28;20116;-51
2022/03/08 09:34:21;;;;;;;31.02;20.80;;;;;;;;;;5057767;28;20024;-55
2022/03/08 09:36:47;;;;;;;25.95;19.27;;;;;;;;;;5039186;28;20555;-54
2022/03/08 09:39:13;;;;;;;32.83;18.77;;;;;;;;;;5039713;28;20017;-52
2022/03/08 09:41:41;;;;;;;28.58;18.67;;;;;;;;;;5035099;28;20041;-56
2022/03/08 09:44:12;;;;;;;28.08;18.27;;;;;;;;;;5029849;28;20037;-55
2022/03/08 09:46:38;;;;;;;28.98;17.40;;;;;;;;;;5041803;28;20044;-56
2022/03/08 09:49:04;;;;;;;21.48;16.27;;;;;;;;;;5046507;28;20041;-52
2022/03/08 09:51:30;;;;;;;28.58;16.38;;;;;;;;;;5036886;28;20380;-57
2022/03/08 09:53:56;;;;;;;24.52;16.60;;;;;;;;;;5034293;28;20041;-51
2022/03/08 09:56:22;;;;;;;22.20;15.85;;;;;;;;;;5039692;28;20017;-53
2022/03/08 09:58:49;;;;;;;22.30;15.68;;;;;;;;;;5037335;28;20820;-56
2022/03/08 10:01:15;;;;;;;21.95;14.73;;;;;;;;;;5034193;28;20029;-53
2022/03/08 10:03:43;;;;;;;17.98;14.43;;;;;;;;;;5033703;28;20060;-52
2022/03/08 10:06:10;;;;;;;22.73;14.73;;;;;;;;;;5039861;28;20491;-51
2022/03/08 10:08:36;;;;;;;20.52;14.85;;;;;;;;;;5035251;28;20123;-49
2022/03/08 10:11:04;;;;;;;16.77;13.27;;;;;;;;;;5039735;28;20071;-52
2022/03/08 10:13:35;;;;;;;21.85;13.40;;;;;;;;;;5036697;28;20448;-49
2022/03/08 10:16:08;;;;;;;18.23;12.90;;;;;;;;;;5037137;28;20068;-54
2022/03/08 10:18:45;;;;;;;16.65;12.98;;;;;;;;;;5036140;28;20033;-53
2022/03/08 10:21:29;;;;;;;15.35;12.18;;;;;;;;;;5039339;28;20111;-56
2022/03/08 10:23:56;;;;;;;19.35;13.00;;;;;;;;;;5033964;28;20055;-54
2022/03/08 10:26:23;;;;;;;17.30;11.82;;;;;;;;;;5036589;28;20022;-57
2022/03/08 10:28:51;;;;;;;17.55;11.70;;;;;;;;;;5036839;28;20040;-56
2022/03/08 10:31:17;;;;;;;16.52;10.75;;;;;;;;;;5036886;28;20424;-55
2022/03/08 10:33:44;;;;;;;14.82;11.50;;;;;;;;;;5036513;28;20455;-54
2022/03/08 10:36:15;;;;;;;14.43;10.85;;;;;;;;;;5039125;28;20036;-56
2022/03/08 10:38:42;;;;;;;13.70;10.48;;;;;;;;;;5037904;28;20495;-60
2022/03/08 10:41:19;;;;;;;13.98;9.30;;;;;;;;;;5040874;28;20043;-54
2022/03/08 10:43:48;;;;;;;13.85;9.88;;;;;;;;;;5036519;28;20056;-56
2022/03/08 10:46:18;;;;;;;14.00;10.02;;;;;;;;;;5037320;28;20044;-52
2022/03/08 10:48:46;;;;;;;13.32;9.13;;;;;;;;;;5036306;28;20445;-53
2022/03/08 10:51:17;;;;;;;12.63;9.80;;;;;;;;;;5037083;28;20029;-53
2022/03/08 10:53:43;;;;;;;11.77;9.40;;;;;;;;;;5037198;28;20029;-55
2022/03/08 10:56:10;;;;;;;12.98;9.35;;;;;;;;;;5034525;28;20133;-51
2022/03/08 10:58:48;;;;;;;11.20;7.82;;;;;;;;;;5032278;28;20468;-55
2022/03/08 11:01:14;;;;;;;14.93;9.23;;;;;;;;;;5036757;28;20041;-54
2022/03/08 11:03:40;;;;;;;13.80;8.73;;;;;;;;;;5034367;28;20025;-55
2022/03/08 11:06:07;;;;;;;11.77;8.80;;;;;;;;;;5034719;28;20049;-56
2022/03/08 11:08:33;;;;;;;10.90;8.55;;;;;;;;;;5037408;28;20039;-55
2022/03/08 11:10:59;;;;;;;12.77;7.78;;;;;;;;;;5037293;28;20104;-55
2022/03/08 11:13:26;;;;;;;12.80;8.00;;;;;;;;;;5033959;28;20128;-55
2022/03/08 11:15:53;;;;;;;13.30;7.22;;;;;;;;;;5036751;28;20075;-51
2022/03/08 11:18:20;;;;;;;10.68;7.68;;;;;;;;;;5033851;28;20423;-54
2022/03/08 11:20:47;;;;;;;10.15;7.38;;;;;;;;;;5038137;28;20037;-55
2022/03/08 11:23:13;;;;;;;11.35;7.20;;;;;;;;;;5033168;28;20029;-52
2022/03/08 11:25:41;;;;;;;13.13;8.10;;;;;;;;;;5031878;28;20025;-53
2022/03/08 11:28:08;;;;;;;8.88;6.88;;;;;;;;;;5031999;28;20116;-50
2022/03/08 11:30:42;;;;;;;11.02;6.55;;;;;;;;;;5035860;28;20550;-52
2022/03/08 11:33:14;;;;;;;14.60;6.95;;;;;;;;;;5033185;28;20045;-48
2022/03/08 11:35:56;;;;;;;9.95;6.82;;;;;;;;;;5034906;28;20405;-51
2022/03/08 11:38:22;;;;;;;9.48;6.75;;;;;;;;;;5031162;28;20029;-51
2022/03/08 11:40:50;;;;;;;10.85;6.38;;;;;;;;;;5033730;28;20039;-55
2022/03/08 11:43:16;;;;;;;8.55;6.43;;;;;;;;;;5030998;28;20111;-53
2022/03/08 11:45:42;;;;;;;10.98;6.88;;;;;;;;;;5035352;28;20116;-52
2022/03/08 11:48:09;;;;;;;11.80;6.82;;;;;;;;;;5033216;28;20043;-50
2022/03/08 11:50:39;;;;;;;9.35;6.75;;;;;;;;;;5033282;28;20083;-53
2022/03/08 11:53:10;;;;;;;8.30;5.47;;;;;;;;;;5034856;28;20045;-49
2022/03/08 11:55:38;;;;;;;9.25;6.13;;;;;;;;;;5029733;28;20372;-50
2022/03/08 11:58:08;;;;;;;10.02;5.78;;;;;;;;;;5030354;28;20021;-53
2022/03/08 12:00:37;;;;;;;8.38;5.47;;;;;;;;;;5033734;28;20585;-50
2022/03/08 12:03:07;;;;;;;10.57;6.32;;;;;;;;;;5033733;28;20041;-49
2022/03/08 12:05:55;;;;;;;12.02;5.38;;;;;;;;;;5040398;28;20061;-53
2022/03/08 12:08:27;;;;;;;44.40;23.38;;;;;;;;;;5032676;28;20087;-54
2022/03/08 12:11:04;;;;;;;35.35;15.88;;;;;;;;;;5038278;28;20029;-49
2022/03/08 12:13:40;;;;;;;12.57;7.00;;;;;;;;;;5034433;28;20127;-54
2022/03/08 12:16:09;;;;;;;10.75;5.22;;;;;;;;;;5039237;28;20147;-52
2022/03/08 12:18:36;;;;;;;12.05;4.70;;;;;;;;;;5033567;28;20100;-49
2022/03/08 12:21:17;;;;;;;9.98;4.63;;;;;;;;;;5034572;28;20048;-51
2022/03/08 12:23:54;;;;;;;8.35;4.60;;;;;;;;;;5036383;28;20053;-49
2022/03/08 12:26:31;;;;;;;7.55;4.18;;;;;;;;;;5042079;28;20174;-52
2022/03/08 12:29:06;;;;;;;10.35;4.40;;;;;;;;;;5047059;28;20025;-54
2022/03/08 12:31:32;;;;;;;7.30;3.72;;;;;;;;;;5046267;28;20033;-52
2022/03/08 12:34:00;;;;;;;8.63;3.88;;;;;;;;;;5046701;28;20120;-53
2022/03/08 12:36:27;;;;;;;8.40;3.72;;;;;;;;;;5046689;28;20021;-55
2022/03/08 12:38:53;;;;;;;6.55;3.88;;;;;;;;;;5045667;28;20029;-55
2022/03/08 12:41:24;;;;;;;11.52;3.75;;;;;;;;;;5047442;28;20028;-51
2022/03/08 12:44:00;;;;;;;8.07;3.47;;;;;;;;;;5039814;28;20033;-54
2022/03/08 12:46:27;;;;;;;8.35;3.63;;;;;;;;;;5051197;28;20017;-49
2022/03/08 12:48:53;;;;;;;7.30;3.55;;;;;;;;;;5045164;28;20029;-52
2022/03/08 12:51:23;;;;;;;10.30;3.65;;;;;;;;;;5049187;28;20028;-54
2022/03/08 12:53:57;;;;;;;9.00;3.42;;;;;;;;;;5049351;28;20557;-55
2022/03/08 12:56:24;;;;;;;7.82;3.22;;;;;;;;;;5058825;28;20025;-53
2022/03/08 12:58:50;;;;;;;7.82;4.30;;;;;;;;;;5048083;28;20075;-51
2022/03/08 13:01:16;;;;;;;5.80;2.80;;;;;;;;;;5051801;28;20050;-54
2022/03/08 13:03:44;;;;;;;5.57;2.80;;;;;;;;;;5054095;28;20098;-55
2022/03/08 13:06:11;;;;;;;5.90;2.60;;;;;;;;;;5046556;28;20143;-51
2022/03/08 13:08:39;;;;;;;5.80;3.15;;;;;;;;;;5046243;28;20104;-53
2022/03/08 13:11:06;;;;;;;4.63;2.55;;;;;;;;;;5051195;28;20398;-55
2022/03/08 13:13:33;;;;;;;6.30;2.90;;;;;;;;;;5059491;28;20082;-55
2022/03/08 13:15:59;;;;;;;3.97;2.28;;;;;;;;;;5060187;28;20504;-51
2022/03/08 13:18:29;;;;;;;7.35;2.35;;;;;;;;;;5051125;28;20143;-53
2022/03/08 13:20:55;;;;;;;;;;;;;;;;;;5052579;28;20088;-50
2022/03/08 13:23:25;;;;;;;6.38;2.63;;;;;;;;;;5059700;28;19950;-53
2022/03/08 13:25:53;;;;;;;7.05;2.30;;;;;;;;;;5060582;28;20060;-54
2022/03/08 13:28:21;;;;;;;5.30;2.70;;;;;;;;;;5055456;28;20029;-55
2022/03/08 13:30:51;;;;;;;4.90;2.20;;;;;;;;;;5050172;28;20108;-54
2022/03/08 13:33:22;;;;;;;5.05;2.53;;;;;;;;;;5049287;28;20040;-55
2022/03/08 13:35:48;;;;;;;4.40;2.05;;;;;;;;;;5049832;28;20519;-54
2022/03/08 13:38:19;;;;;;;5.07;2.33;;;;;;;;;;5058444;28;20021;-52
2022/03/08 13:40:45;;;;;;;5.97;2.25;;;;;;;;;;5058781;28;20094;-50
2022/03/08 13:43:12;;;;;;;4.30;2.17;;;;;;;;;;5064393;28;20079;-54
2022/03/08 13:45:39;;;;;;;5.00;1.85;;;;;;;;;;5049535;28;20499;-49
2022/03/08 13:48:05;;;;;;;5.60;2.22;;;;;;;;;;5060804;28;20035;-55
2022/03/08 13:50:32;;;;;;;4.57;1.95;;;;;;;;;;5049424;28;20036;-52
2022/03/08 13:53:05;;;;;;;3.85;1.98;;;;;;;;;;5052964;28;20368;-55
2022/03/08 13:55:31;;;;;;;3.22;1.67;;;;;;;;;;5049319;28;20666;-48
2022/03/08 13:58:01;;;;;;;2.25;1.30;;;;;;;;;;5049643;28;20112;-52
2022/03/08 14:00:29;;;;;;;4.60;1.92;;;;;;;;;;5052302;28;20029;-53
2022/03/08 14:02:55;;;;;;;4.72;2.13;;;;;;;;;;5052555;28;20545;-53
2022/03/08 14:05:22;;;;;;;4.90;1.65;;;;;;;;;;5052810;28;20088;-55
2022/03/08 14:08:01;;;;;;;5.55;1.67;;;;;;;;;;5049431;28;20090;-55
2022/03/08 14:10:28;;;;;;;5.57;1.90;;;;;;;;;;5049120;28;20028;-53
2022/03/08 14:12:54;;;;;;;4.45;1.90;;;;;;;;;;5049527;28;20029;-55
2022/03/08 14:15:22;;;;;;;3.70;1.70;;;;;;;;;;5055444;28;20017;-56
2022/03/08 14:17:49;;;;;;;5.47;1.70;;;;;;;;;;5063853;28;20112;-56
2022/03/08 14:20:16;;;;;;;12.75;2.03;;;;;;;;;;5054904;28;20048;-55
2022/03/08 14:22:58;;;;;;;3.88;1.70;;;;;;;;;;5048910;28;20764;-53
2022/03/08 14:25:24;;;;;;;4.72;1.40;;;;;;;;;;5049072;28;20096;-53
2022/03/08 14:27:50;;;;;;;2.72;1.50;;;;;;;;;;5049296;28;20116;-54
2022/03/08 14:30:21;;;;;;;6.68;1.55;;;;;;;;;;5053511;28;20471;-50
2022/03/08 14:32:47;;;;;;;3.63;1.70;;;;;;;;;;5055326;28;20045;-52
2022/03/08 14:35:14;;;;;;;5.45;1.55;;;;;;;;;;5062250;28;20025;-50
2022/03/08 14:37:41;;;;;;;5.32;1.60;;;;;;;;;;5048766;28;20104;-54
2022/03/08 14:40:07;;;;;;;3.08;1.55;;;;;;;;;;5048895;28;20052;-55